createdAt,value
2019-04-20T00:01:42.924Z,53.33
2019-04-20T00:04:19.441Z,52.65
2019-04-20T00:06:48.572Z,58.03
2019-04-20T00:09:21.323Z,47.33
2019-04-20T00:12:00.106Z,58.30
2019-04-20T00:14:26.282Z,49.05
2019-04-20T00:16:52.782Z,50.43
2019-04-20T00:19:32.207Z,46.53
2019-04-20T00:22:03.598Z,58.92
2019-04-20T00:24:39.330Z,43.52
2019-04-20T00:27:31.402Z,59.93
2019-04-20T00:29:58.728Z,51.33
2019-04-20T00:32:29.435Z,45.50
2019-04-20T00:34:48.933Z,41.48
2019-04-20T00:37:19.321Z,41.33
2019-04-20T00:40:09.884Z,53.95
2019-04-20T00:42:45.915Z,46.15
2019-04-20T00:45:19.138Z,40.63
2019-04-20T00:47:51.182Z,45.40
2019-04-20T00:50:34.193Z,47.40
2019-04-20T00:52:59.086Z,43.40
2019-04-20T00:55:20.905Z,37.00
2019-04-20T00:57:57.025Z,36.55
2019-04-20T01:00:42.498Z,41.88
2019-04-20T01:03:10.162Z,37.85
2019-04-20T01:05:59.677Z,39.92
2019-04-20T01:08:27.459Z,41.95
2019-04-20T01:10:59.357Z,43.23
2019-04-20T01:13:30.253Z,41.55
2019-04-20T01:16:08.467Z,46.60
2019-04-20T01:18:33.469Z,39.70
2019-04-20T01:21:06.559Z,41.00
2019-04-20T01:23:43.772Z,44.63
2019-04-20T01:26:11.472Z,40.50
2019-04-20T01:28:57.713Z,42.23
2019-04-20T01:31:21.914Z,46.95
2019-04-20T01:33:56.526Z,43.00
2019-04-20T01:36:36.957Z,51.30
2019-04-20T01:39:05.680Z,46.17
2019-04-20T01:41:20.332Z,45.52
2019-04-20T01:43:50.643Z,45.90
2019-04-20T01:46:24.816Z,47.20
2019-04-20T01:48:54.852Z,52.90
2019-04-20T01:51:28.586Z,39.08
2019-04-20T01:54:22.717Z,40.05
2019-04-20T01:56:47.628Z,40.40
2019-04-20T01:59:39.978Z,43.83
2019-04-20T02:02:23.218Z,41.00
2019-04-20T02:05:16.860Z,41.67
2019-04-20T02:07:48.562Z,43.63
2019-04-20T02:10:19.987Z,35.10
2019-04-20T02:12:55.637Z,39.17
2019-04-20T02:15:31.137Z,33.83
2019-04-20T02:18:08.849Z,40.05
2019-04-20T02:20:45.052Z,45.07
2019-04-20T02:23:10.735Z,38.28
2019-04-20T02:25:31.032Z,36.28
2019-04-20T02:28:18.958Z,38.03
2019-04-20T02:31:15.955Z,42.30
2019-04-20T02:33:42.784Z,38.03
2019-04-20T02:44:36.465Z,39.47
2019-04-20T02:52:04.554Z,35.00
2019-04-20T02:54:52.958Z,33.80
2019-04-20T02:57:14.342Z,31.60
2019-04-20T03:01:59.386Z,39.55
2019-04-20T03:04:25.824Z,34.70
2019-04-20T03:07:00.992Z,36.90
2019-04-20T03:09:36.487Z,37.88
2019-04-20T03:12:21.633Z,41.98
2019-04-20T03:14:35.283Z,34.18
2019-04-20T03:17:15.327Z,33.77
2019-04-20T03:19:41.462Z,41.90
2019-04-20T03:22:24.502Z,33.30
2019-04-20T03:24:56.572Z,34.30
2019-04-20T03:27:29.622Z,35.53
2019-04-20T03:30:40.247Z,30.27
2019-04-20T03:35:43.136Z,33.83
2019-04-20T03:38:10.714Z,33.47
2019-04-20T03:40:50.656Z,38.17
2019-04-20T03:43:09.873Z,35.10
2019-04-20T03:45:47.542Z,37.10
2019-04-20T03:48:29.497Z,30.53
2019-04-20T03:51:02.271Z,36.40
